Time;durP1;ratioP1;P1;durP2;ratioP2;P2;SDS_P1;SDS_P2;PMS_P1;PMS_P2;Temp;Humidity;BMP_temperature;BMP_pressure;BME280_temperature;BME280_humidity;BME280_pressure;Samples;Min_cycle;Max_cycle;Signal;HPM_P1;HPM_P2
2021/11/30 00:01:19;;;;;;;19.73;6.13;;;;;;;2.78;100.00;101274.66;5222382;28;20194;-73
2021/11/30 00:03:50;;;;;;;15.98;5.95;;;;;;;2.76;100.00;101276.56;5222469;28;20100;-73
2021/11/30 00:06:21;;;;;;;19.02;6.57;;;;;;;2.76;100.00;101277.44;5222517;28;20217;-72
2021/11/30 00:08:58;;;;;;;18.38;6.90;;;;;;;2.75;100.00;101288.97;5213327;28;20064;-73
2021/11/30 00:11:29;;;;;;;21.10;6.90;;;;;;;2.78;100.00;101279.97;5222567;28;20029;-72
2021/11/30 00:13:59;;;;;;;16.13;7.28;;;;;;;2.78;100.00;101277.31;5222087;28;20103;-72
2021/11/30 00:16:30;;;;;;;21.58;6.25;;;;;;;2.75;100.00;101253.69;5222396;28;20036;-72
2021/11/30 00:19:00;;;;;;;16.98;6.25;;;;;;;2.76;100.00;101255.38;5222313;28;20641;-73
2021/11/30 00:21:31;;;;;;;19.58;6.15;;;;;;;2.81;100.00;101247.94;5222366;28;20083;-72
2021/11/30 00:24:01;;;;;;;12.75;6.13;;;;;;;2.83;100.00;101238.94;5222059;28;20025;-72
2021/11/30 00:26:32;;;;;;;21.60;5.88;;;;;;;2.81;100.00;101226.75;5222459;28;20025;-72
2021/11/30 00:29:03;;;;;;;15.13;5.68;;;;;;;2.77;100.00;101226.13;5222604;28;20417;-73
2021/11/30 00:31:34;;;;;;;12.00;5.13;;;;;;;2.83;100.00;101223.06;5222332;28;20029;-73
2021/11/30 00:34:04;;;;;;;16.38;5.18;;;;;;;2.82;100.00;101229.31;5222403;28;20466;-73
2021/11/30 00:36:34;;;;;;;12.30;5.05;;;;;;;2.83;100.00;101236.31;5221487;28;20031;-73
2021/11/30 00:39:05;;;;;;;15.90;5.50;;;;;;;2.91;100.00;101230.44;5222307;28;20021;-72
2021/11/30 00:41:36;;;;;;;16.70;4.82;;;;;;;2.94;100.00;101232.91;5221978;28;20025;-73
2021/11/30 00:44:06;;;;;;;15.63;5.38;;;;;;;2.98;100.00;101241.50;5221696;28;20025;-73
2021/11/30 00:46:39;;;;;;;17.20;4.80;;;;;;;3.03;100.00;101228.75;5221803;28;20040;-73
2021/11/30 00:49:11;;;;;;;14.38;4.50;;;;;;;3.07;100.00;101230.25;5221615;28;20021;-73
2021/11/30 00:51:43;;;;;;;12.80;3.72;;;;;;;3.09;100.00;101223.84;5222217;28;20033;-73
2021/11/30 00:54:15;;;;;;;10.60;4.35;;;;;;;3.14;100.00;101217.38;5221381;28;20422;-73
2021/11/30 00:56:47;;;;;;;13.82;4.53;;;;;;;3.18;100.00;101213.56;5222293;28;20032;-73
2021/11/30 00:59:20;;;;;;;16.63;4.53;;;;;;;3.16;100.00;101213.66;5221659;28;20040;-72
2021/11/30 01:01:50;;;;;;;15.55;5.03;;;;;;;3.21;100.00;101206.22;5221684;28;20490;-72
2021/11/30 01:04:21;;;;;;;12.88;4.32;;;;;;;3.24;100.00;101208.66;5221247;28;20035;-73
2021/11/30 01:06:51;;;;;;;9.73;3.70;;;;;;;3.18;100.00;101203.81;5221678;28;20024;-73
2021/11/30 01:09:22;;;;;;;13.55;4.50;;;;;;;3.15;100.00;101205.81;5211739;28;20021;-72
2021/11/30 01:11:53;;;;;;;13.45;4.13;;;;;;;3.12;100.00;101204.25;5221483;28;20112;-73
2021/11/30 01:14:24;;;;;;;19.98;4.18;;;;;;;3.17;100.00;101201.28;5221139;28;20021;-73
2021/11/30 01:16:54;;;;;;;9.57;3.63;;;;;;;3.15;100.00;101196.06;5221644;28;20033;-73
2021/11/30 01:19:25;;;;;;;12.30;3.63;;;;;;;3.16;100.00;101188.94;5221929;28;20021;-73
2021/11/30 01:21:56;;;;;;;14.05;3.50;;;;;;;3.15;100.00;101184.63;5221671;28;20390;-73
2021/11/30 01:24:26;;;;;;;15.10;3.95;;;;;;;3.11;100.00;101186.63;5221064;28;20024;-73
2021/11/30 01:26:57;;;;;;;11.60;4.00;;;;;;;3.00;100.00;101183.91;5221671;28;20021;-73
2021/11/30 01:29:27;;;;;;;11.30;3.88;;;;;;;2.98;100.00;101177.88;5221494;28;20025;-73
2021/11/30 01:31:58;;;;;;;10.93;5.25;;;;;;;2.97;100.00;101173.53;5220935;28;20115;-73
2021/11/30 01:34:28;;;;;;;13.82;4.13;;;;;;;2.90;100.00;101169.63;5220942;28;20017;-73
2021/11/30 01:36:59;;;;;;;14.48;4.32;;;;;;;2.89;100.00;101155.53;5221097;28;20032;-73
2021/11/30 01:39:29;;;;;;;10.93;4.00;;;;;;;2.92;100.00;101154.47;5221606;28;20538;-73
2021/11/30 01:42:00;;;;;;;13.13;3.95;;;;;;;2.91;100.00;101147.44;5221491;28;20521;-73
2021/11/30 01:44:39;;;;;;;8.75;3.70;;;;;;;2.85;100.00;101144.28;5221182;28;20367;-73
2021/11/30 01:49:41;;;;;;;11.05;4.25;;;;;;;2.88;100.00;101142.38;5220879;28;20047;-73
2021/11/30 01:52:11;;;;;;;11.18;4.65;;;;;;;2.81;100.00;101142.84;5221174;28;20053;-74
2021/11/30 01:54:43;;;;;;;8.63;4.15;;;;;;;2.82;100.00;101147.16;5221791;28;20021;-74
2021/11/30 01:57:16;;;;;;;10.98;4.57;;;;;;;2.79;100.00;101144.72;5224116;28;20028;-74
2021/11/30 01:59:48;;;;;;;14.45;4.60;;;;;;;2.77;100.00;101141.34;5225175;28;20179;-74
2021/11/30 02:02:19;;;;;;;21.92;4.47;;;;;;;2.76;100.00;101138.78;5225247;28;20027;-74
2021/11/30 02:04:51;;;;;;;11.90;4.75;;;;;;;2.75;100.00;101134.44;5225244;28;20025;-74
2021/11/30 02:07:22;;;;;;;13.77;4.38;;;;;;;2.75;100.00;101131.81;5223354;28;20036;-74
2021/11/30 02:09:57;;;;;;;;;;;;;;;2.73;100.00;101131.91;5218057;28;20539;-74
2021/11/30 02:12:27;;;;;;;12.38;5.30;;;;;;;2.76;100.00;101123.75;5224940;28;19912;-74
2021/11/30 02:14:58;;;;;;;11.55;4.35;;;;;;;2.77;100.00;101144.00;5225014;28;20052;-74
2021/11/30 02:17:29;;;;;;;14.07;5.15;;;;;;;2.80;100.00;101153.50;5224150;28;20021;-74
2021/11/30 02:20:00;;;;;;;19.75;7.07;;;;;;;2.81;100.00;101141.97;5224914;28;20320;-74
2021/11/30 02:22:31;;;;;;;13.70;5.53;;;;;;;2.83;100.00;101140.06;5225012;28;20029;-74
2021/11/30 02:25:05;;;;;;;15.30;5.28;;;;;;;2.89;100.00;101129.03;5223257;28;20392;-74
2021/11/30 02:27:36;;;;;;;16.48;5.10;;;;;;;2.91;100.00;101119.13;5224796;28;20103;-74
2021/11/30 02:30:07;;;;;;;10.35;5.45;;;;;;;2.91;100.00;101116.50;5224828;28;20085;-74
2021/11/30 02:32:38;;;;;;;13.68;6.28;;;;;;;2.95;100.00;101112.66;5225156;28;20126;-73
2021/11/30 02:35:10;;;;;;;13.60;5.60;;;;;;;2.95;100.00;101104.72;5224388;28;20059;-74
2021/11/30 02:37:50;;;;;;;12.80;5.30;;;;;;;3.03;100.00;101096.22;5224434;28;20116;-73
2021/11/30 02:40:21;;;;;;;15.18;6.20;;;;;;;3.01;100.00;101100.78;5223679;28;20024;-74
2021/11/30 02:42:51;;;;;;;17.08;5.65;;;;;;;3.04;100.00;101082.00;5224654;28;20025;-73
2021/11/30 02:45:22;;;;;;;12.23;5.35;;;;;;;3.05;100.00;101083.69;5224698;28;20032;-72
2021/11/30 02:47:52;;;;;;;15.45;5.60;;;;;;;3.15;100.00;101078.56;5224165;28;20032;-72
2021/11/30 02:50:26;;;;;;;20.05;6.25;;;;;;;3.15;100.00;101065.31;5225111;28;20036;-73
2021/11/30 02:52:58;;;;;;;18.10;6.47;;;;;;;3.18;100.00;101067.75;5224738;28;20032;-73
2021/11/30 02:55:28;;;;;;;16.80;5.68;;;;;;;3.29;100.00;101051.88;5224307;28;20497;-73
2021/11/30 02:57:59;;;;;;;13.60;7.05;;;;;;;3.31;100.00;101052.59;5224469;28;20025;-73
2021/11/30 03:00:30;;;;;;;15.30;6.78;;;;;;;3.35;100.00;101054.91;5223892;28;20029;-72
2021/11/30 03:03:01;;;;;;;15.35;6.20;;;;;;;3.37;100.00;101053.00;5227393;28;20029;-73
2021/11/30 03:05:33;;;;;;;15.23;6.50;;;;;;;3.43;100.00;101035.78;5226559;28;20066;-73
2021/11/30 03:08:04;;;;;;;15.73;6.50;;;;;;;3.45;100.00;101039.16;5218022;28;20033;-72
2021/11/30 03:10:34;;;;;;;17.77;6.68;;;;;;;3.52;100.00;101032.44;5221393;28;20102;-72
2021/11/30 03:13:05;;;;;;;23.50;7.63;;;;;;;3.49;100.00;101027.34;5219494;28;20075;-73
2021/11/30 03:15:38;;;;;;;15.70;7.93;;;;;;;3.49;100.00;101027.34;5221830;28;20086;-72
2021/11/30 03:18:10;;;;;;;18.55;7.68;;;;;;;3.52;100.00;101021.00;5223839;28;20348;-73
2021/11/30 03:20:40;;;;;;;20.35;7.70;;;;;;;3.56;100.00;101025.91;5223685;28;20279;-72
2021/11/30 03:23:11;;;;;;;22.45;7.90;;;;;;;3.58;100.00;101012.56;5223726;28;20041;-73
2021/11/30 03:25:42;;;;;;;14.45;8.38;;;;;;;3.52;100.00;101010.38;5223344;28;20063;-73
2021/11/30 03:28:13;;;;;;;17.77;7.90;;;;;;;3.49;100.00;101008.78;5223368;28;20024;-74
2021/11/30 03:30:54;;;;;;;19.00;8.85;;;;;;;3.51;100.00;101004.19;5223502;28;20086;-74
2021/11/30 03:36:13;;;;;;;21.10;9.77;;;;;;;3.55;100.00;100992.41;5223225;28;20025;-74
2021/11/30 03:38:44;;;;;;;24.88;10.95;;;;;;;3.56;100.00;100993.25;5223912;28;20374;-74
2021/11/30 03:41:15;;;;;;;25.10;10.32;;;;;;;3.59;100.00;100993.88;5223845;28;20108;-74
2021/11/30 03:43:46;;;;;;;18.88;9.80;;;;;;;3.63;100.00;100987.38;5223718;28;20439;-74
2021/11/30 03:46:17;;;;;;;23.88;10.90;;;;;;;3.64;100.00;100974.94;5222666;28;20040;-74
2021/11/30 03:48:48;;;;;;;23.48;10.50;;;;;;;3.64;100.00;100973.13;5223176;28;20052;-75
2021/11/30 03:51:18;;;;;;;25.67;11.48;;;;;;;3.70;100.00;100966.50;5223179;28;20025;-72
2021/11/30 03:53:49;;;;;;;23.92;10.75;;;;;;;3.77;100.00;100970.38;5223149;28;20371;-73
2021/11/30 03:56:20;;;;;;;24.27;13.27;;;;;;;3.78;100.00;100984.50;5223564;28;20033;-72
2021/11/30 03:58:50;;;;;;;20.98;11.35;;;;;;;3.81;100.00;100977.13;5222588;28;20159;-72
2021/11/30 04:01:21;;;;;;;38.97;15.57;;;;;;;3.84;100.00;100968.94;5218560;28;20271;-72
2021/11/30 04:03:54;;;;;;;84.35;36.45;;;;;;;3.84;100.00;100963.63;5202180;28;20489;-72
2021/11/30 04:06:25;;;;;;;36.50;18.63;;;;;;;3.82;100.00;100962.91;5222176;28;20028;-72
2021/11/30 04:08:55;;;;;;;32.78;15.80;;;;;;;3.90;100.00;100956.97;5213203;28;20108;-72
2021/11/30 04:11:26;;;;;;;34.60;17.00;;;;;;;3.88;100.00;100959.75;5222506;28;20131;-72
2021/11/30 04:13:56;;;;;;;35.25;18.52;;;;;;;3.94;100.00;100955.78;5222371;28;20032;-72
2021/11/30 04:16:27;;;;;;;37.42;20.83;;;;;;;3.96;100.00;100951.19;5222392;28;20026;-72
2021/11/30 04:18:58;;;;;;;36.15;16.42;;;;;;;3.94;100.00;100950.47;5222251;28;20048;-72
2021/11/30 04:21:29;;;;;;;31.33;15.90;;;;;;;3.97;100.00;100944.94;5222841;28;20067;-72
2021/11/30 04:24:00;;;;;;;42.15;21.15;;;;;;;3.99;100.00;100953.59;5222757;28;20429;-72
2021/11/30 04:26:30;;;;;;;35.20;16.88;;;;;;;4.04;100.00;100942.63;5222430;28;20082;-72
2021/11/30 04:29:02;;;;;;;36.83;16.73;;;;;;;4.03;100.00;100946.25;5222299;28;20013;-71
2021/11/30 04:31:34;;;;;;;36.08;17.65;;;;;;;4.06;100.00;100943.34;5222832;28;20057;-72
2021/11/30 04:34:05;;;;;;;35.50;17.23;;;;;;;4.13;100.00;100933.94;5221732;28;20028;-72
2021/11/30 04:36:35;;;;;;;35.33;17.02;;;;;;;4.12;100.00;100930.44;5221870;28;20035;-72
2021/11/30 04:39:06;;;;;;;40.33;17.63;;;;;;;4.18;100.00;100930.91;5222077;28;20048;-72
2021/11/30 04:41:37;;;;;;;50.88;21.92;;;;;;;4.24;100.00;100931.25;5222076;28;20078;-72
2021/11/30 04:44:09;;;;;;;43.45;19.77;;;;;;;4.24;100.00;100933.91;5222402;28;20371;-71
2021/11/30 04:46:48;;;;;;;41.97;19.25;;;;;;;4.29;100.00;100931.72;5221704;28;20048;-72
2021/11/30 04:52:11;;;;;;;40.75;19.48;;;;;;;4.36;100.00;100929.41;5221913;28;20546;-72
2021/11/30 04:54:42;;;;;;;79.35;39.88;;;;;;;4.39;100.00;100919.38;5221455;28;20482;-72
2021/11/30 04:57:12;;;;;;;73.18;36.88;;;;;;;4.45;100.00;100923.34;5222190;28;20036;-72
2021/11/30 04:59:43;;;;;;;45.50;21.45;;;;;;;4.47;100.00;100933.84;5220519;28;20021;-72
2021/11/30 05:02:14;;;;;;;61.88;27.17;;;;;;;4.51;100.00;100927.31;5221984;28;20028;-72
2021/11/30 05:04:47;;;;;;;71.90;33.85;;;;;;;4.51;100.00;100928.16;5221451;28;20021;-72
2021/11/30 05:07:18;;;;;;;49.53;22.10;;;;;;;4.54;100.00;100922.63;5221489;28;20035;-72
2021/11/30 05:09:48;;;;;;;50.90;22.25;;;;;;;4.57;100.00;100916.22;5213005;28;20359;-72
2021/11/30 05:12:19;;;;;;;52.80;22.92;;;;;;;4.60;100.00;100927.41;5221835;28;20437;-72
2021/11/30 05:14:49;;;;;;;58.45;26.48;;;;;;;4.61;100.00;100918.47;5221378;28;20347;-72
2021/11/30 05:17:20;;;;;;;54.92;24.15;;;;;;;4.61;100.00;100921.13;5222082;28;20401;-72
2021/11/30 05:19:50;;;;;;;58.90;24.35;;;;;;;4.61;100.00;100923.78;5221965;28;20029;-72
2021/11/30 05:22:21;;;;;;;58.38;25.17;;;;;;;4.67;100.00;100925.97;5221938;28;20099;-72
2021/11/30 05:24:51;;;;;;;100.43;51.78;;;;;;;4.68;100.00;100918.84;5221228;28;20120;-72
2021/11/30 05:27:22;;;;;;;60.83;30.08;;;;;;;4.71;100.00;100923.03;5221896;28;20047;-72
2021/11/30 05:29:53;;;;;;;52.05;23.02;;;;;;;4.73;100.00;100916.63;5222504;28;20017;-73
2021/11/30 05:32:23;;;;;;;76.90;34.28;;;;;;;4.78;100.00;100913.59;5225681;28;20027;-72
2021/11/30 05:34:54;;;;;;;46.28;21.55;;;;;;;4.76;100.00;100907.56;5225256;28;20466;-72
2021/11/30 05:37:24;;;;;;;43.25;21.00;;;;;;;4.83;100.00;100911.41;5225892;28;20192;-72
2021/11/30 05:39:55;;;;;;;49.28;20.75;;;;;;;4.85;100.00;100904.97;5225762;28;20078;-72
2021/11/30 05:42:26;;;;;;;42.55;19.73;;;;;;;4.87;100.00;100903.03;5225665;28;20107;-72
2021/11/30 05:44:56;;;;;;;40.88;19.75;;;;;;;4.94;100.00;100898.88;5225378;28;20103;-72
2021/11/30 05:47:27;;;;;;;45.35;20.55;;;;;;;4.93;100.00;100905.19;5225428;28;20062;-73
2021/11/30 05:49:57;;;;;;;48.15;21.35;;;;;;;4.93;100.00;100907.84;5225638;28;20553;-72
2021/11/30 05:52:28;;;;;;;44.45;20.88;;;;;;;4.96;100.00;100904.06;5225831;28;20064;-71
2021/11/30 05:54:59;;;;;;;36.72;19.45;;;;;;;5.01;100.00;100906.34;5225431;28;20017;-72
2021/11/30 05:57:29;;;;;;;39.72;19.23;;;;;;;5.05;100.00;100897.16;5225015;28;20032;-72
2021/11/30 06:00:01;;;;;;;37.25;19.23;;;;;;;5.09;100.00;100906.56;5225180;28;20425;-72
2021/11/30 06:02:39;;;;;;;48.08;23.40;;;;;;;5.08;100.00;100899.56;5225272;28;20087;-71
2021/11/30 06:05:10;;;;;;;63.78;26.45;;;;;;;5.08;100.00;100908.38;5224752;28;20091;-72
2021/11/30 06:07:40;;;;;;;81.22;34.70;;;;;;;5.15;100.00;100912.19;5221014;28;20025;-72
2021/11/30 06:10:11;;;;;;;63.67;29.80;;;;;;;5.19;100.00;100907.47;5218668;28;20021;-72
2021/11/30 06:12:41;;;;;;;112.63;48.53;;;;;;;5.25;100.00;100901.63;5225072;28;20086;-72
2021/11/30 06:15:12;;;;;;;38.58;18.90;;;;;;;5.30;100.00;100904.72;5224323;28;20036;-72
2021/11/30 06:17:43;;;;;;;51.80;22.23;;;;;;;5.29;100.00;100912.84;5224942;28;20505;-71
2021/11/30 06:20:15;;;;;;;62.92;31.60;;;;;;;5.31;100.00;100925.03;5224911;28;20028;-71
2021/11/30 06:22:45;;;;;;;41.80;19.38;;;;;;;5.38;100.00;100909.41;5224709;28;20021;-72
2021/11/30 06:25:16;;;;;;;70.03;31.67;;;;;;;5.38;100.00;100925.38;5224372;28;20032;-72
2021/11/30 06:27:46;;;;;;;53.42;24.92;;;;;;;5.38;100.00;100912.06;5224839;28;20033;-71
2021/11/30 06:30:17;;;;;;;52.83;24.40;;;;;;;5.39;100.00;100924.38;5224838;28;20486;-72
2021/11/30 06:32:47;;;;;;;46.95;20.75;;;;;;;5.43;100.00;100926.66;5224896;28;20021;-72
2021/11/30 06:35:18;;;;;;;45.13;20.33;;;;;;;5.50;100.00;100911.00;5224618;28;20020;-71
2021/11/30 06:37:48;;;;;;;45.53;20.27;;;;;;;5.52;100.00;100916.19;5224945;28;20032;-72
2021/11/30 06:40:20;;;;;;;42.92;18.92;;;;;;;5.56;100.00;100925.59;5224741;28;20099;-72
2021/11/30 06:42:51;;;;;;;41.67;20.48;;;;;;;5.55;100.00;100919.44;5224872;28;20107;-72
2021/11/30 06:45:21;;;;;;;49.33;21.25;;;;;;;5.56;100.00;100909.63;5223813;28;20078;-72
2021/11/30 06:47:52;;;;;;;50.15;21.30;;;;;;;5.58;100.00;100923.66;5224278;28;20032;-73
2021/11/30 06:50:22;;;;;;;45.30;21.85;;;;;;;5.65;100.00;100917.66;5224438;28;20029;-73
2021/11/30 06:52:53;;;;;;;43.38;20.25;;;;;;;5.66;100.00;100907.84;5224284;28;20024;-72
2021/11/30 06:55:24;;;;;;;43.10;20.30;;;;;;;5.67;100.00;100912.19;5223835;28;20028;-72
2021/11/30 06:57:54;;;;;;;59.10;31.08;;;;;;;5.67;100.00;100914.84;5223809;28;20040;-72
2021/11/30 07:00:25;;;;;;;58.17;29.75;;;;;;;5.70;100.00;100917.28;5223813;28;20021;-72
2021/11/30 07:02:56;;;;;;;100.10;50.88;;;;;;;5.69;100.00;100916.44;5224054;28;20033;-72
2021/11/30 07:05:33;;;;;;;56.58;27.65;;;;;;;5.73;100.00;100927.66;5223670;28;20028;-72
2021/11/30 07:08:18;;;;;;;46.70;23.05;;;;;;;5.76;100.00;100923.88;5217756;28;20074;-71
2021/11/30 07:10:52;;;;;;;46.63;24.73;;;;;;;5.79;100.00;100918.31;5223270;28;20098;-72
2021/11/30 07:13:30;;;;;;;40.35;22.38;;;;;;;5.82;100.00;100915.34;5223900;28;20056;-72
2021/11/30 07:16:03;;;;;;;58.13;26.77;;;;;;;5.85;100.00;100926.59;5223753;28;20077;-72
2021/11/30 07:18:34;;;;;;;50.53;23.10;;;;;;;5.85;100.00;100920.41;5223539;28;20029;-72
2021/11/30 07:21:04;;;;;;;57.97;25.58;;;;;;;5.91;100.00;100923.41;5223911;28;20371;-71
2021/11/30 07:23:35;;;;;;;75.88;29.35;;;;;;;5.93;100.00;100923.28;5223120;28;20082;-72
2021/11/30 07:26:05;;;;;;;70.07;29.33;;;;;;;6.01;100.00;100918.13;5224309;28;20386;-71
2021/11/30 07:28:36;;;;;;;55.92;26.15;;;;;;;6.10;100.00;100916.47;5224348;28;20021;-72
2021/11/30 07:31:10;;;;;;;62.63;26.70;;;;;;;6.10;100.00;100921.81;5223268;28;20276;-72
2021/11/30 07:33:45;;;;;;;58.42;26.52;;;;;;;6.13;100.00;100913.56;5223530;28;20071;-72
2021/11/30 07:36:18;;;;;;;52.25;26.02;;;;;;;6.18;100.00;100924.66;5224089;28;20108;-72
2021/11/30 07:38:49;;;;;;;140.00;65.93;;;;;;;6.23;100.00;100933.91;5223393;28;20482;-71
2021/11/30 07:41:20;;;;;;;52.42;23.98;;;;;;;6.25;100.00;100915.13;5223081;28;20027;-71
2021/11/30 07:43:50;;;;;;;100.43;48.53;;;;;;;6.28;100.00;100922.84;5223166;28;20470;-72
2021/11/30 07:46:21;;;;;;;48.75;22.33;;;;;;;6.31;100.00;100919.88;5223244;28;20032;-72
2021/11/30 07:48:51;;;;;;;75.05;39.30;;;;;;;6.31;100.00;100922.56;5223070;28;20116;-72
2021/11/30 07:51:22;;;;;;;47.13;22.38;;;;;;;6.37;100.00;100921.16;5223354;28;20474;-72
2021/11/30 07:53:52;;;;;;;41.08;20.13;;;;;;;6.47;100.00;100914.03;5221980;28;20021;-72
2021/11/30 07:56:23;;;;;;;35.20;17.20;;;;;;;6.44;100.00;100909.81;5222398;28;20021;-73
2021/11/30 07:58:54;;;;;;;37.95;20.33;;;;;;;6.49;100.00;100912.91;5222774;28;20032;-73
2021/11/30 08:01:24;;;;;;;55.92;24.15;;;;;;;6.51;100.00;100922.59;5222676;28;20028;-72
2021/11/30 08:03:55;;;;;;;45.00;20.98;;;;;;;6.60;100.00;100921.78;5222587;28;20041;-72
2021/11/30 08:06:25;;;;;;;47.85;21.33;;;;;;;6.59;100.00;100914.75;5222863;28;20029;-73
2021/11/30 08:08:56;;;;;;;44.38;20.77;;;;;;;6.60;100.00;100922.59;5212771;28;20427;-72
2021/11/30 08:11:27;;;;;;;35.65;17.33;;;;;;;6.61;100.00;100918.13;5222686;28;20127;-72
2021/11/30 08:13:57;;;;;;;33.90;15.77;;;;;;;6.65;100.00;100922.19;5222041;28;20054;-72
2021/11/30 08:16:28;;;;;;;32.97;15.63;;;;;;;6.65;100.00;100924.88;5222270;28;20116;-73
2021/11/30 08:18:58;;;;;;;31.63;15.18;;;;;;;6.65;100.00;100903.53;5222201;28;20028;-72
2021/11/30 08:21:29;;;;;;;27.95;13.95;;;;;;;6.70;100.00;100919.97;5222796;28;20441;-73
2021/11/30 08:24:00;;;;;;;30.30;14.00;;;;;;;6.74;100.00;100916.03;5222420;28;20029;-73
2021/11/30 08:26:31;;;;;;;38.90;16.63;;;;;;;6.71;100.00;100917.13;5222128;28;20047;-72
2021/11/30 08:29:01;;;;;;;30.10;14.48;;;;;;;6.75;100.00;100931.03;5222201;28;20024;-72
2021/11/30 08:31:32;;;;;;;30.05;13.98;;;;;;;6.81;100.00;100930.47;5221854;28;20180;-73
2021/11/30 08:34:02;;;;;;;34.88;17.05;;;;;;;6.84;100.00;100940.88;5222281;28;20117;-72
2021/11/30 08:36:33;;;;;;;50.10;27.60;;;;;;;6.84;100.00;100938.22;5222067;28;20097;-72
2021/11/30 08:39:03;;;;;;;57.85;30.13;;;;;;;6.86;100.00;100933.56;5222425;28;20060;-72
2021/11/30 08:41:34;;;;;;;74.70;43.33;;;;;;;6.83;100.00;100938.31;5221839;28;20071;-73
2021/11/30 08:44:05;;;;;;;51.15;31.05;;;;;;;6.85;100.00;100937.22;5221801;28;20055;-72
2021/11/30 08:46:35;;;;;;;42.92;21.17;;;;;;;6.87;100.00;100945.91;5220573;28;20093;-72
2021/11/30 08:49:06;;;;;;;37.92;18.30;;;;;;;6.89;100.00;100941.31;5221732;28;20116;-72
2021/11/30 08:51:37;;;;;;;35.08;15.70;;;;;;;6.99;100.00;100946.63;5221928;28;20124;-72
2021/11/30 08:54:08;;;;;;;33.70;17.25;;;;;;;7.03;100.00;100942.72;5221517;28;20425;-72
2021/11/30 08:56:39;;;;;;;33.42;18.00;;;;;;;7.01;100.00;100942.00;5221673;28;20036;-72
2021/11/30 08:59:11;;;;;;;37.65;18.58;;;;;;;7.01;100.00;100939.31;5222275;28;20193;-72
2021/11/30 09:01:42;;;;;;;31.80;15.82;;;;;;;6.99;100.00;100939.47;5221979;28;20028;-72
2021/11/30 09:04:13;;;;;;;32.53;14.98;;;;;;;7.05;100.00;100937.22;5221201;28;20478;-72
2021/11/30 09:06:43;;;;;;;39.33;17.73;;;;;;;7.10;100.00;100937.66;5221941;28;20053;-72
2021/11/30 09:09:14;;;;;;;39.78;18.33;;;;;;;7.07;100.00;100943.25;5211921;28;20533;-72
2021/11/30 09:11:45;;;;;;;35.67;17.45;;;;;;;7.09;100.00;100943.97;5221582;28;20120;-72
2021/11/30 09:14:21;;;;;;;41.72;18.27;;;;;;;7.16;100.00;100937.06;5221274;28;20482;-72
2021/11/30 09:16:54;;;;;;;34.10;16.02;;;;;;;7.21;100.00;100940.16;5220378;28;20029;-73
2021/11/30 09:19:25;;;;;;;37.83;19.88;;;;;;;7.19;100.00;100945.66;5221750;28;20542;-73
2021/11/30 09:21:56;;;;;;;45.42;23.92;;;;;;;7.20;100.00;100939.31;5221350;28;20055;-72
2021/11/30 09:24:27;;;;;;;58.03;29.38;;;;;;;7.16;100.00;100935.25;5221162;28;20021;-72
2021/11/30 09:26:57;;;;;;;63.13;32.60;;;;;;;7.18;100.00;100943.13;5221515;28;20413;-73
2021/11/30 09:29:28;;;;;;;48.13;21.65;;;;;;;7.24;100.00;100929.22;5221578;28;20029;-72
2021/11/30 09:31:58;;;;;;;53.80;24.88;;;;;;;7.25;100.00;100934.41;5221155;28;20024;-73
2021/11/30 09:34:29;;;;;;;66.72;34.17;;;;;;;7.28;100.00;100927.94;5220962;28;20512;-73
2021/11/30 09:37:00;;;;;;;62.85;32.55;;;;;;;7.27;100.00;100928.91;5221294;28;20045;-73
2021/11/30 09:39:30;;;;;;;51.92;27.17;;;;;;;7.27;100.00;100923.56;5221399;28;20024;-73
2021/11/30 09:42:03;;;;;;;60.22;27.48;;;;;;;7.33;100.00;100923.03;5221718;28;20032;-72
2021/11/30 09:44:34;;;;;;;63.42;28.50;;;;;;;7.30;100.00;100920.63;5220634;28;20052;-72
2021/11/30 09:47:04;;;;;;;66.65;27.60;;;;;;;7.33;100.00;100916.81;5221365;28;20025;-73
2021/11/30 09:49:35;;;;;;;55.25;23.33;;;;;;;7.34;100.00;100914.03;5221065;28;20029;-72
2021/11/30 09:52:07;;;;;;;53.90;23.98;;;;;;;7.39;100.00;100914.44;5221342;28;20032;-72
2021/11/30 09:54:37;;;;;;;47.65;22.98;;;;;;;7.39;100.00;100927.78;5221430;28;20091;-72
2021/11/30 09:57:08;;;;;;;40.30;20.98;;;;;;;7.41;100.00;100932.97;5221412;28;20045;-72
2021/11/30 09:59:42;;;;;;;44.88;20.30;;;;;;;7.42;100.00;100930.13;5221505;28;20025;-73
2021/11/30 10:02:13;;;;;;;42.63;20.25;;;;;;;7.48;100.00;100934.06;5221334;28;20510;-72
2021/11/30 10:04:44;;;;;;;41.08;20.65;;;;;;;7.44;100.00;100927.34;5220874;28;20432;-72
2021/11/30 10:07:14;;;;;;;41.80;18.60;;;;;;;7.49;100.00;100931.25;5220681;28;20021;-72
2021/11/30 10:09:45;;;;;;;39.40;17.77;;;;;;;7.50;100.00;100945.44;5211874;28;20032;-72
2021/11/30 10:12:19;;;;;;;33.88;17.02;;;;;;;7.51;100.00;100934.63;5221147;28;20024;-72
2021/11/30 10:14:49;;;;;;;35.83;17.35;;;;;;;7.55;100.00;100931.69;5220666;28;20449;-72
2021/11/30 10:17:23;;;;;;;35.28;17.13;;;;;;;7.60;100.00;100940.94;5224041;28;20051;-72
2021/11/30 10:19:59;;;;;;;30.17;16.10;;;;;;;7.57;100.00;100940.38;5224297;28;20363;-72
2021/11/30 10:22:40;;;;;;;;;;;;;;;7.61;100.00;100936.44;5225665;28;20104;-72
2021/11/30 10:25:21;;;;;;;29.65;15.10;;;;;;;7.67;100.00;100941.19;5224262;28;19909;-72
2021/11/30 10:27:55;;;;;;;24.80;14.55;;;;;;;7.71;100.00;100945.25;5225058;28;20037;-71
2021/11/30 10:30:28;;;;;;;34.83;15.02;;;;;;;7.70;100.00;100943.56;5224309;28;20505;-73
2021/11/30 10:33:04;;;;;;;28.08;14.77;;;;;;;7.77;100.00;100937.50;5224575;28;20033;-72
2021/11/30 10:35:35;;;;;;;41.58;19.90;;;;;;;7.71;100.00;100939.91;5224370;28;20052;-72
2021/11/30 10:38:06;;;;;;;28.27;17.98;;;;;;;7.71;100.00;100932.75;5224415;28;20128;-72
2021/11/30 10:40:39;;;;;;;34.00;17.60;;;;;;;7.71;100.00;100937.25;5224303;28;20447;-72
2021/11/30 10:43:10;;;;;;;38.30;20.48;;;;;;;7.70;100.00;100932.91;5224182;28;20267;-72
2021/11/30 10:45:46;;;;;;;33.75;17.15;;;;;;;7.74;100.00;100929.78;5224035;28;20029;-72
2021/11/30 10:48:19;;;;;;;35.08;19.75;;;;;;;7.71;100.00;100934.56;5211152;28;20017;-72
2021/11/30 10:50:55;;;;;;;28.40;16.92;;;;;;;7.76;100.00;100938.47;5224037;28;20029;-72
2021/11/30 10:53:30;;;;;;;29.88;15.60;;;;;;;7.77;100.00;100944.66;5224132;28;20037;-72
2021/11/30 10:56:03;;;;;;;25.73;15.35;;;;;;;7.85;100.00;100944.78;5223674;28;20027;-72
2021/11/30 10:58:38;;;;;;;36.88;15.88;;;;;;;7.81;100.00;100937.22;5224189;28;20025;-72
2021/11/30 11:01:13;;;;;;;30.60;15.73;;;;;;;7.83;100.00;100952.13;5224228;28;20110;-72
2021/11/30 11:03:43;;;;;;;;;;;;;;;7.86;100.00;100951.81;5224144;28;20363;-72
2021/11/30 11:06:30;;;;;;;35.17;16.08;;;;;;;7.84;100.00;100953.78;5223828;28;19927;-72
2021/11/30 11:09:09;;;;;;;34.83;16.90;;;;;;;7.87;100.00;100950.81;5214812;28;20402;-72
2021/11/30 11:11:43;;;;;;;30.55;15.30;;;;;;;7.82;100.00;100945.06;5223948;28;20025;-72
2021/11/30 11:14:25;;;;;;;39.38;17.83;;;;;;;7.78;100.00;100949.00;5222781;28;20037;-72
2021/11/30 11:17:06;;;;;;;31.50;16.08;;;;;;;7.82;100.00;100931.72;5222640;28;20025;-72
2021/11/30 11:19:47;;;;;;;36.50;19.00;;;;;;;7.78;100.00;100951.69;5223664;28;20024;-72
2021/11/30 11:22:22;;;;;;;40.72;24.30;;;;;;;7.76;100.00;100941.16;5210854;28;20028;-72
2021/11/30 11:25:00;;;;;;;65.33;36.23;;;;;;;7.81;100.00;100942.56;5223469;28;20017;-72
2021/11/30 11:27:34;;;;;;;64.20;38.63;;;;;;;7.80;100.00;100936.38;5223657;28;20297;-72
2021/11/30 11:30:08;;;;;;;65.15;41.30;;;;;;;7.83;100.00;100933.41;5223559;28;20013;-72
2021/11/30 11:32:39;;;;;;;70.75;43.47;;;;;;;7.82;100.00;100937.06;5223721;28;20050;-72
2021/11/30 11:35:11;;;;;;;37.55;19.27;;;;;;;7.82;100.00;100938.88;5222544;28;20028;-72
2021/11/30 11:37:44;;;;;;;34.20;18.52;;;;;;;7.87;100.00;100941.97;5223265;28;20297;-72
2021/11/30 11:40:15;;;;;;;39.60;20.40;;;;;;;7.83;100.00;100938.75;5223106;28;20113;-73